Terminal Aerodrome Forecast
Issued by NWS

Home | Current Version | Previous Version | Text Only | Print | Product List | Glossary On
Versions: 1 2 3 4 5 6 7 8 9 10 11 12 13 14 15 16 17 18 19 20 21 22 23 24 25 26 27 28 29
000
FTUS41 KGYX 030701 AAA
TAFRKD
TAF AMD
KRKD 030701Z 0307/0406 VRB04KT 1SM -SHRA BR OVC002
     FM031000 29006KT 2SM BR SCT002 BKN100
     FM031300 29010G15KT P6SM FEW250
     FM032100 29005KT P6SM SKC
      AMD LTD TO CLD VIS AND WIND=

USA.gov is the U.S. government's official web portal to all federal, state and local government web resources and services.